createdAt,value
2019-03-15T00:01:40.754Z,94233.27
2019-03-15T00:04:10.352Z,94233.23
2019-03-15T00:06:39.840Z,94242.37
2019-03-15T00:09:09.846Z,94229.01
2019-03-15T00:11:39.364Z,94230.52
2019-03-15T00:17:09.610Z,94079.03
2019-03-15T00:19:39.117Z,94245.51
2019-03-15T00:22:08.633Z,94245.30
2019-03-15T00:24:38.186Z,94253.23
2019-03-15T00:27:07.661Z,94253.09
2019-03-15T00:29:37.340Z,94250.20
2019-03-15T00:32:07.748Z,94257.38
2019-03-15T00:34:37.262Z,94257.55
2019-03-15T00:37:06.776Z,94257.20
2019-03-15T00:39:37.513Z,94250.20
2019-03-15T00:42:07.014Z,94259.95
2019-03-15T00:44:36.527Z,94258.80
2019-03-15T00:47:06.121Z,94266.95
2019-03-15T00:49:35.652Z,94262.81
2019-03-15T00:52:05.168Z,94258.21
2019-03-15T00:54:34.668Z,94252.43
2019-03-15T00:57:05.120Z,94261.77
2019-03-15T00:59:34.703Z,94260.50
2019-03-15T01:02:04.177Z,94259.84
2019-03-15T01:04:33.688Z,94250.30
2019-03-15T01:07:03.172Z,94259.54
2019-03-15T01:09:33.236Z,94262.59
2019-03-15T01:12:02.723Z,94270.70
2019-03-15T01:14:32.227Z,94277.34
2019-03-15T01:17:01.715Z,94267.63
2019-03-15T01:19:31.235Z,94273.30
2019-03-15T01:22:01.422Z,94268.64
2019-03-15T01:24:30.898Z,94277.06
2019-03-15T01:27:00.402Z,94285.34
2019-03-15T01:29:29.901Z,94283.92
2019-03-15T01:31:59.425Z,94285.84
2019-03-15T01:34:29.702Z,94293.50
2019-03-15T01:36:59.186Z,94294.80
2019-03-15T01:39:28.691Z,94292.01
2019-03-15T01:41:58.178Z,94301.14
2019-03-15T01:44:27.661Z,94299.38
2019-03-15T01:46:57.818Z,94311.33
2019-03-15T01:49:27.321Z,94308.11
2019-03-15T01:51:56.815Z,94317.35
2019-03-15T01:54:26.323Z,94323.68
2019-03-15T01:56:55.806Z,94323.72
2019-03-15T01:59:25.962Z,94325.77
2019-03-15T02:01:55.457Z,94328.60
2019-03-15T02:04:24.946Z,94331.78
2019-03-15T02:06:54.429Z,94341.36
2019-03-15T02:09:23.920Z,94334.38
2019-03-15T02:11:53.424Z,94334.56
2019-03-15T02:14:22.902Z,94336.06
2019-03-15T02:16:52.416Z,94343.04
2019-03-15T02:19:21.896Z,94337.70
2019-03-15T02:21:51.381Z,94341.50
2019-03-15T02:24:22.127Z,94341.30
2019-03-15T02:26:51.615Z,94336.06
2019-03-15T02:29:21.180Z,94342.39
2019-03-15T02:31:50.691Z,94346.50
2019-03-15T02:34:20.177Z,94353.44
2019-03-15T02:36:50.632Z,94347.73
2019-03-15T02:39:20.206Z,94353.27
2019-03-15T02:41:49.705Z,94358.56
2019-03-15T02:44:19.199Z,94361.85
2019-03-15T02:46:48.694Z,94361.98
2019-03-15T02:49:18.228Z,94371.60
2019-03-15T02:51:48.017Z,94373.17
2019-03-15T02:54:17.484Z,94368.01
2019-03-15T02:56:46.983Z,94377.11
2019-03-15T02:59:16.493Z,94376.80
2019-03-15T03:02:27.688Z,94380.48
2019-03-15T03:04:57.235Z,94262.88
2019-03-15T03:07:26.746Z,94381.92
2019-03-15T03:09:56.262Z,94384.77
2019-03-15T03:12:25.750Z,94385.25
2019-03-15T03:14:55.486Z,94384.90
2019-03-15T03:17:24.978Z,94383.55
2019-03-15T03:19:54.509Z,94389.23
2019-03-15T03:22:24.051Z,94395.30
2019-03-15T03:24:53.575Z,94398.89
2019-03-15T03:27:23.087Z,94389.23
2019-03-15T03:29:53.073Z,94398.41
2019-03-15T03:32:22.607Z,94401.63
2019-03-15T03:34:52.150Z,94401.13
2019-03-15T03:40:22.463Z,94335.95
2019-03-15T03:42:52.021Z,94396.47
2019-03-15T03:45:23.355Z,94396.81
2019-03-15T03:47:52.738Z,94399.70
2019-03-15T03:50:22.231Z,94399.84
2019-03-15T03:52:51.737Z,94399.54
2019-03-15T03:55:40.584Z,94408.38
2019-03-15T03:58:10.068Z,94353.79
2019-03-15T04:00:39.575Z,94414.35
2019-03-15T04:03:09.138Z,94420.97
2019-03-15T04:05:38.717Z,94416.00
2019-03-15T04:08:08.241Z,94427.87
2019-03-15T04:10:37.720Z,94431.64
2019-03-15T04:13:07.277Z,94435.45
2019-03-15T04:15:36.927Z,94440.14
2019-03-15T04:18:06.784Z,94437.37
2019-03-15T04:20:55.632Z,94434.77
2019-03-15T04:23:25.126Z,94436.93
2019-03-15T04:25:54.633Z,94429.95
2019-03-15T04:28:24.184Z,94429.09
2019-03-15T04:30:53.714Z,94442.83
2019-03-15T04:33:23.220Z,94438.58
2019-03-15T04:35:52.723Z,94436.02
2019-03-15T04:38:22.197Z,94436.16
2019-03-15T04:40:51.679Z,94438.10
2019-03-15T04:43:21.184Z,94435.72
2019-03-15T04:45:50.668Z,94438.33
2019-03-15T04:48:20.212Z,94431.34
2019-03-15T04:50:49.694Z,94445.61
2019-03-15T04:53:38.539Z,94441.09
2019-03-15T04:56:08.079Z,94398.67
2019-03-15T04:58:37.577Z,94437.98
2019-03-15T05:01:07.076Z,94438.88
2019-03-15T05:03:36.607Z,94437.50
2019-03-15T05:06:06.167Z,94440.66
2019-03-15T05:08:35.741Z,94444.52
2019-03-15T05:11:24.599Z,94439.66
2019-03-15T05:14:06.749Z,94440.62
2019-03-15T05:16:36.261Z,94440.62
2019-03-15T05:19:05.782Z,94429.13
2019-03-15T05:21:35.290Z,94442.44
2019-03-15T05:24:04.793Z,94434.16
2019-03-15T05:26:34.300Z,94444.91
2019-03-15T05:29:03.821Z,94436.80
2019-03-15T05:31:33.312Z,94449.97
2019-03-15T05:34:02.805Z,94454.48
2019-03-15T05:36:32.279Z,94457.26
2019-03-15T05:39:01.811Z,94445.04
2019-03-15T05:41:31.322Z,94445.04
2019-03-15T05:44:00.814Z,94433.38
2019-03-15T05:46:30.333Z,94433.85
2019-03-15T05:48:59.821Z,94433.72
2019-03-15T05:51:29.333Z,94430.64
2019-03-15T05:53:58.838Z,94435.50
2019-03-15T05:56:28.326Z,94433.55
2019-03-15T05:58:58.899Z,94428.22
2019-03-15T06:01:28.365Z,94428.34
2019-03-15T06:03:57.869Z,94435.70
2019-03-15T06:06:27.395Z,94428.66
2019-03-15T06:09:35.275Z,94423.31
2019-03-15T06:15:08.449Z,94439.44
2019-03-15T06:17:57.319Z,94434.72
2019-03-15T06:20:37.742Z,94442.42
2019-03-15T06:23:07.239Z,94449.44
2019-03-15T06:25:37.735Z,94444.44
2019-03-15T06:28:07.223Z,94453.68
2019-03-15T06:30:36.748Z,94449.47
2019-03-15T06:33:06.314Z,94454.84
2019-03-15T06:35:35.769Z,94450.66
2019-03-15T06:38:05.946Z,94458.30
2019-03-15T06:43:14.506Z,94459.80
2019-03-15T06:45:44.888Z,94467.27
2019-03-15T06:48:14.393Z,94465.94
2019-03-15T06:51:03.222Z,94466.86
2019-03-15T06:53:32.726Z,94476.83
2019-03-15T06:56:21.564Z,94496.14
2019-03-15T06:58:51.176Z,94481.52
2019-03-15T07:01:20.650Z,94483.30
2019-03-15T07:03:50.183Z,94482.68
2019-03-15T07:06:19.691Z,94478.40
2019-03-15T07:08:49.198Z,94474.36
2019-03-15T07:11:18.759Z,94477.88
2019-03-15T07:13:48.726Z,94487.64
2019-03-15T07:16:38.338Z,94488.94
2019-03-15T07:19:08.900Z,94478.09
2019-03-15T07:21:38.387Z,94482.47
2019-03-15T07:24:07.903Z,94473.09
2019-03-15T07:26:37.378Z,94494.73
2019-03-15T07:29:06.881Z,94482.16
2019-03-15T07:31:36.370Z,94487.68
2019-03-15T07:34:05.927Z,94497.34
2019-03-15T07:36:37.275Z,94494.26
2019-03-15T07:39:07.767Z,94490.80
2019-03-15T07:41:37.253Z,94501.86
2019-03-15T07:44:06.831Z,94506.23
2019-03-15T07:46:36.981Z,94505.20
2019-03-15T07:49:06.492Z,94504.81
2019-03-15T07:51:36.062Z,94504.91
2019-03-15T07:54:05.636Z,94511.23
2019-03-15T07:56:35.122Z,94517.86
2019-03-15T07:59:05.322Z,94520.41
2019-03-15T08:01:34.803Z,94523.48
2019-03-15T08:04:16.314Z,94536.37
2019-03-15T08:06:36.396Z,94530.84
2019-03-15T08:09:07.603Z,94531.95
2019-03-15T08:11:37.120Z,94535.42
2019-03-15T08:14:06.626Z,94552.09
2019-03-15T08:16:36.173Z,94551.08
2019-03-15T08:19:05.680Z,94556.33
2019-03-15T08:21:35.175Z,94551.91
2019-03-15T08:24:04.997Z,94558.93
2019-03-15T08:26:34.478Z,94556.46
2019-03-15T08:29:03.982Z,94559.28
2019-03-15T08:31:33.469Z,94568.30
2019-03-15T08:34:03.004Z,94551.83
2019-03-15T08:36:32.490Z,94561.66
2019-03-15T08:39:01.997Z,94557.59
2019-03-15T08:41:31.482Z,94579.74
2019-03-15T08:44:01.001Z,94573.30
2019-03-15T08:46:30.488Z,94562.27
2019-03-15T08:48:59.994Z,94559.41
2019-03-15T08:51:29.520Z,94559.41
2019-03-15T08:53:59.045Z,94563.55
2019-03-15T08:56:28.530Z,94560.97
2019-03-15T08:58:58.063Z,94557.30
2019-03-15T09:01:27.550Z,94557.48
2019-03-15T09:03:57.034Z,94551.52
2019-03-15T09:06:26.591Z,94537.73
2019-03-15T09:08:56.158Z,94540.78
2019-03-15T09:11:25.638Z,94529.63
2019-03-15T09:13:55.147Z,94530.39
2019-03-15T09:16:25.538Z,94524.73
2019-03-15T09:19:33.407Z,94528.73
2019-03-15T09:22:22.272Z,94479.61
2019-03-15T09:24:52.507Z,94523.92
2019-03-15T09:27:22.048Z,94523.45
2019-03-15T09:29:51.560Z,94519.65
2019-03-15T09:32:21.138Z,94509.84
2019-03-15T09:34:50.649Z,94512.10
2019-03-15T09:37:20.653Z,94512.69
2019-03-15T09:39:50.161Z,94509.33
2019-03-15T09:42:38.999Z,94509.92
2019-03-15T09:45:21.685Z,94503.84
2019-03-15T09:47:51.192Z,94495.26
2019-03-15T09:50:30.799Z,94492.95
2019-03-15T09:52:51.903Z,94485.68
2019-03-15T09:55:32.431Z,94487.02
2019-03-15T09:57:52.638Z,94480.27
2019-03-15T10:00:22.371Z,94477.20
2019-03-15T10:02:51.858Z,94474.73
2019-03-15T10:05:22.392Z,94478.94
2019-03-15T10:07:51.877Z,94456.96
2019-03-15T10:10:21.412Z,94475.88
2019-03-15T10:13:04.683Z,94477.05
2019-03-15T10:15:22.268Z,94473.93
2019-03-15T10:17:51.752Z,94483.25
2019-03-15T10:20:21.260Z,94480.40
2019-03-15T10:23:04.602Z,94475.16
2019-03-15T10:25:22.050Z,94475.98
2019-03-15T10:27:51.527Z,94464.11
2019-03-15T10:30:21.898Z,94457.98
2019-03-15T10:32:51.387Z,94464.38
2019-03-15T10:35:20.954Z,94458.41
2019-03-15T10:38:09.831Z,94449.33
2019-03-15T10:40:39.319Z,94442.20
2019-03-15T10:43:08.806Z,94447.04
2019-03-15T10:45:38.311Z,94434.31
2019-03-15T10:48:08.324Z,94431.97
2019-03-15T10:50:37.832Z,94430.27
2019-03-15T10:53:07.324Z,94441.83
2019-03-15T10:55:36.855Z,94440.67
2019-03-15T10:58:06.333Z,94439.94
2019-03-15T11:00:36.141Z,94422.59
2019-03-15T11:03:05.688Z,94435.67
2019-03-15T11:05:35.245Z,94422.11
2019-03-15T11:08:04.824Z,94422.45
2019-03-15T11:10:34.323Z,94424.56
2019-03-15T11:13:03.807Z,94416.15
2019-03-15T11:15:33.340Z,94427.55
2019-03-15T11:18:03.380Z,94427.38
2019-03-15T11:20:32.890Z,94430.56
2019-03-15T11:23:02.387Z,94414.14
2019-03-15T11:25:31.884Z,94419.03
2019-03-15T11:28:01.387Z,94429.44
2019-03-15T11:30:31.418Z,94420.32
2019-03-15T11:33:00.903Z,94412.83
2019-03-15T11:35:30.405Z,94416.91
2019-03-15T11:37:59.887Z,94425.22
2019-03-15T11:40:29.403Z,94421.00
2019-03-15T11:42:59.920Z,94417.22
2019-03-15T11:45:29.453Z,94393.73
2019-03-15T11:48:04.181Z,94408.23
2019-03-15T11:50:30.271Z,94410.00
2019-03-15T11:52:59.758Z,94412.44
2019-03-15T11:55:29.289Z,94413.41
2019-03-15T11:57:58.773Z,94421.87
2019-03-15T12:00:28.288Z,94425.78
2019-03-15T12:02:57.768Z,94422.72
2019-03-15T12:05:27.354Z,94418.95
2019-03-15T12:07:56.860Z,94422.90
2019-03-15T12:10:26.387Z,94420.75
2019-03-15T12:12:55.877Z,94420.59
2019-03-15T12:15:25.381Z,94432.03
2019-03-15T12:17:54.871Z,94417.47
2019-03-15T12:20:24.379Z,94421.39
2019-03-15T12:22:53.867Z,94429.06
2019-03-15T12:28:43.478Z,94372.22
2019-03-15T12:31:13.012Z,94420.75
2019-03-15T12:33:42.505Z,94425.78
2019-03-15T12:36:12.001Z,94438.02
2019-03-15T12:38:41.525Z,94422.84
2019-03-15T12:41:11.020Z,94426.09
2019-03-15T12:43:59.878Z,94433.13
2019-03-15T12:46:29.390Z,94430.52
2019-03-15T12:48:58.965Z,94438.66
2019-03-15T12:51:32.424Z,94430.34
2019-03-15T12:57:19.836Z,94353.29
2019-03-15T12:59:49.323Z,94429.48
2019-03-15T13:02:20.303Z,94428.48
2019-03-15T13:04:52.086Z,94434.38
2019-03-15T13:07:21.337Z,94427.70
2019-03-15T13:09:50.814Z,94428.82
2019-03-15T13:12:20.371Z,94429.00
2019-03-15T13:14:49.879Z,94428.37
2019-03-15T13:17:19.426Z,94424.45
2019-03-15T13:19:55.215Z,94425.09
2019-03-15T13:22:20.162Z,94411.73
2019-03-15T13:24:49.653Z,94418.26
2019-03-15T13:27:19.154Z,94436.84
2019-03-15T13:29:48.641Z,94437.51
2019-03-15T13:32:18.445Z,94442.20
2019-03-15T13:34:47.959Z,94433.86
2019-03-15T13:37:17.475Z,94435.49
2019-03-15T13:39:47.019Z,94437.44
2019-03-15T13:42:16.537Z,94433.36
2019-03-15T13:44:46.012Z,94443.33
2019-03-15T13:47:15.527Z,94448.55
2019-03-15T13:49:46.257Z,94452.92
2019-03-15T13:52:15.788Z,94453.59
2019-03-15T13:54:45.272Z,94451.80
2019-03-15T13:57:20.996Z,94455.72
2019-03-15T13:59:46.003Z,94456.36
2019-03-15T14:02:15.515Z,94455.72
2019-03-15T14:04:45.031Z,94450.98
2019-03-15T14:07:14.551Z,94452.44
2019-03-15T14:10:15.759Z,94456.53
2019-03-15T14:12:45.334Z,94450.31
2019-03-15T14:15:19.504Z,94455.38
2019-03-15T14:17:49.324Z,94454.55
2019-03-15T14:20:18.877Z,94449.14
2019-03-15T14:22:48.370Z,94448.14
2019-03-15T14:25:27.242Z,94451.09
2019-03-15T14:27:56.768Z,94439.33
2019-03-15T14:30:26.257Z,94451.04
2019-03-15T14:32:55.760Z,94437.34
2019-03-15T14:35:25.257Z,94436.53
2019-03-15T14:37:54.838Z,94434.35
2019-03-15T14:40:24.520Z,94444.50
2019-03-15T14:42:54.083Z,94441.21
2019-03-15T14:45:23.741Z,94434.67
2019-03-15T14:47:53.176Z,94438.94
2019-03-15T14:50:22.648Z,94432.70
2019-03-15T14:52:52.181Z,94440.23
2019-03-15T14:55:21.669Z,94428.91
2019-03-15T14:57:53.204Z,94426.59
2019-03-15T15:00:23.613Z,94430.22
2019-03-15T15:02:53.116Z,94428.56
2019-03-15T15:05:41.930Z,94421.20
2019-03-15T15:08:24.651Z,94418.45
2019-03-15T15:14:14.748Z,94418.55
2019-03-15T15:16:44.283Z,94431.59
2019-03-15T15:19:13.798Z,94416.21
2019-03-15T15:21:43.280Z,94419.36
2019-03-15T15:24:12.882Z,94437.75
2019-03-15T15:26:42.390Z,94426.31
2019-03-15T15:29:31.237Z,94419.08
2019-03-15T15:32:14.002Z,94389.33
2019-03-15T15:34:43.528Z,94408.84
2019-03-15T15:37:32.356Z,94420.90
2019-03-15T15:40:01.865Z,94423.84
2019-03-15T15:42:31.374Z,94417.42
2019-03-15T15:45:20.236Z,94414.02
2019-03-15T15:48:09.081Z,94267.61
2019-03-15T15:50:38.567Z,94291.38
2019-03-15T15:53:10.901Z,94423.42
2019-03-15T15:55:39.357Z,94417.98
2019-03-15T15:58:17.840Z,94426.48
2019-03-15T16:00:40.074Z,94416.00
2019-03-15T16:03:09.578Z,94411.80
2019-03-15T16:05:39.154Z,94420.13
2019-03-15T16:08:08.688Z,94412.27
2019-03-15T16:10:38.338Z,94402.23
2019-03-15T16:13:17.339Z,94424.73
2019-03-15T16:15:39.046Z,94405.47
2019-03-15T16:18:27.930Z,94409.44
2019-03-15T16:21:16.807Z,94420.86
2019-03-15T16:24:05.762Z,94417.84
2019-03-15T16:26:46.301Z,94397.34
2019-03-15T16:29:15.837Z,94392.00
2019-03-15T16:31:45.324Z,94416.52
2019-03-15T16:34:14.827Z,94420.42
2019-03-15T16:36:44.324Z,94419.13
2019-03-15T16:39:13.893Z,94423.19
2019-03-15T16:41:43.376Z,94435.18
2019-03-15T16:44:12.942Z,94428.41
2019-03-15T16:46:42.480Z,94418.78
2019-03-15T16:49:12.006Z,94440.45
2019-03-15T16:51:42.035Z,94444.27
2019-03-15T16:54:11.652Z,94450.92
2019-03-15T16:56:41.137Z,94449.24
2019-03-15T16:59:10.641Z,94447.41
2019-03-15T17:01:40.140Z,94450.78
2019-03-15T17:04:28.976Z,94457.63
2019-03-15T17:07:00.837Z,94462.27
2019-03-15T17:09:29.801Z,94466.67
2019-03-15T17:11:59.286Z,94468.41
2019-03-15T17:14:28.797Z,94453.52
2019-03-15T17:16:58.305Z,94495.55
2019-03-15T17:19:27.834Z,94480.20
2019-03-15T17:21:57.346Z,94477.72
2019-03-15T17:24:27.189Z,94482.56
2019-03-15T17:26:56.669Z,94500.81
2019-03-15T17:29:26.156Z,94511.81
2019-03-15T17:31:55.662Z,94499.81
2019-03-15T17:34:25.648Z,94501.33
2019-03-15T17:37:06.061Z,94508.38
2019-03-15T17:39:26.656Z,94513.55
2019-03-15T17:41:56.231Z,94517.17
2019-03-15T17:44:25.727Z,94519.54
2019-03-15T17:46:55.213Z,94484.76
2019-03-15T17:49:24.712Z,94525.17
2019-03-15T17:51:54.230Z,94525.19
2019-03-15T17:54:23.699Z,94514.00
2019-03-15T17:56:53.182Z,94524.12
2019-03-15T17:59:22.682Z,94527.92
2019-03-15T18:01:52.181Z,94532.62
2019-03-15T18:04:21.665Z,94540.92
2019-03-15T18:06:51.157Z,94534.89
2019-03-15T18:09:40.009Z,94549.60
2019-03-15T18:12:28.868Z,94547.20
2019-03-15T18:14:58.372Z,94544.64
2019-03-15T18:17:27.862Z,94545.53
2019-03-15T18:19:57.703Z,94556.02
2019-03-15T18:22:27.189Z,94548.05
2019-03-15T18:24:56.671Z,94553.27
2019-03-15T18:27:26.179Z,94554.30
2019-03-15T18:29:55.744Z,94574.70
2019-03-15T18:32:25.241Z,94562.90
2019-03-15T18:34:54.727Z,94546.94
2019-03-15T18:37:24.257Z,94557.80
2019-03-15T18:39:53.960Z,94560.02
2019-03-15T18:42:23.509Z,94569.38
2019-03-15T18:44:52.995Z,94565.47
2019-03-15T18:47:22.547Z,94565.47
2019-03-15T18:49:52.094Z,94577.38
2019-03-15T18:52:21.580Z,94570.70
2019-03-15T18:54:51.164Z,94563.52
2019-03-15T18:57:20.643Z,94572.95
2019-03-15T18:59:50.177Z,94569.85
2019-03-15T19:02:19.684Z,94552.73
2019-03-15T19:04:49.259Z,94561.09
2019-03-15T19:07:18.788Z,94544.41
2019-03-15T19:09:48.295Z,94562.53
2019-03-15T19:12:17.806Z,94547.42
2019-03-15T19:14:47.306Z,94566.60
2019-03-15T19:17:16.814Z,94559.59
2019-03-15T19:19:47.297Z,94557.22
2019-03-15T19:22:16.808Z,94561.70
2019-03-15T19:24:46.342Z,94551.92
2019-03-15T19:27:15.829Z,94567.44
2019-03-15T19:29:53.740Z,94570.04
2019-03-15T19:32:16.570Z,94563.30
2019-03-15T19:38:26.985Z,94569.28
2019-03-15T19:40:56.514Z,94554.72
2019-03-15T19:43:29.152Z,94554.81
2019-03-15T19:45:57.297Z,94567.13
2019-03-15T19:48:26.780Z,94559.02
2019-03-15T19:50:56.275Z,94576.75
2019-03-15T19:53:25.780Z,94550.81
2019-03-15T19:55:55.316Z,94582.01
2019-03-15T19:58:24.828Z,94577.80
2019-03-15T20:00:54.375Z,94577.31
2019-03-15T20:03:24.185Z,94580.89
2019-03-15T20:05:53.724Z,94564.66
2019-03-15T20:08:23.207Z,94584.30
2019-03-15T20:10:52.712Z,94574.34
2019-03-15T20:13:22.195Z,94576.09
2019-03-15T20:15:51.814Z,94564.00
2019-03-15T20:18:21.397Z,94559.50
2019-03-15T20:20:51.004Z,94576.67
2019-03-15T20:23:20.528Z,94566.70
2019-03-15T20:25:50.031Z,94567.97
2019-03-15T20:28:19.509Z,94583.03
2019-03-15T20:30:52.227Z,94570.45
2019-03-15T20:33:20.471Z,94591.98
2019-03-15T20:35:52.059Z,94593.27
2019-03-15T20:38:21.241Z,94594.66
2019-03-15T20:40:50.772Z,94593.86
2019-03-15T20:43:20.252Z,94591.82
2019-03-15T20:45:49.778Z,94585.44
2019-03-15T20:48:19.261Z,94600.94
2019-03-15T20:50:48.780Z,94588.92
2019-03-15T20:53:18.353Z,94585.44
2019-03-15T20:55:48.146Z,94601.34
2019-03-15T20:58:17.653Z,94583.30
2019-03-15T21:00:47.154Z,94586.00
2019-03-15T21:03:16.645Z,94607.43
2019-03-15T21:05:46.147Z,94602.42
2019-03-15T21:08:15.637Z,94606.45
2019-03-15T21:10:45.152Z,94604.59
2019-03-15T21:13:14.640Z,94606.66
2019-03-15T21:15:44.151Z,94604.45
2019-03-15T21:18:13.703Z,94603.02
2019-03-15T21:20:43.176Z,94607.55
2019-03-15T21:23:12.660Z,94600.39
2019-03-15T21:25:42.208Z,94600.17
2019-03-15T21:28:11.692Z,94611.50
2019-03-15T21:30:48.264Z,94607.69
2019-03-15T21:33:12.433Z,94628.59
2019-03-15T21:35:41.936Z,94607.90
2019-03-15T21:38:11.420Z,94612.30
2019-03-15T21:40:40.930Z,94618.03
2019-03-15T21:43:10.419Z,94638.64
2019-03-15T21:45:39.946Z,94619.36
2019-03-15T21:48:09.431Z,94643.75
2019-03-15T21:50:38.938Z,94636.34
2019-03-15T21:53:08.449Z,94642.25
2019-03-15T21:55:37.950Z,94647.38
2019-03-15T21:58:07.454Z,94651.25
2019-03-15T22:00:36.950Z,94655.51
2019-03-15T22:03:06.426Z,94651.78
2019-03-15T22:05:35.993Z,94655.25
2019-03-15T22:08:06.509Z,94662.19
2019-03-15T22:10:36.071Z,94660.19
2019-03-15T22:13:05.594Z,94667.61
2019-03-15T22:15:35.085Z,94663.88
2019-03-15T22:18:04.594Z,94668.93
2019-03-15T22:20:34.710Z,94661.41
2019-03-15T22:23:04.221Z,94664.02
2019-03-15T22:26:06.080Z,94653.71
2019-03-15T22:28:35.587Z,94676.09
2019-03-15T22:31:24.440Z,94662.68
2019-03-15T22:34:06.723Z,94680.46
2019-03-15T22:36:36.523Z,94668.25
2019-03-15T22:39:06.908Z,94661.37
2019-03-15T22:41:36.406Z,94676.19
2019-03-15T22:44:06.038Z,94663.97
2019-03-15T22:46:35.575Z,94672.52
2019-03-15T22:49:05.149Z,94689.33
2019-03-15T22:51:34.664Z,94683.91
2019-03-15T22:54:04.219Z,94683.28
2019-03-15T22:56:33.747Z,94683.13
2019-03-15T22:59:03.224Z,94681.00
2019-03-15T23:01:32.728Z,94678.28
2019-03-15T23:04:02.234Z,94683.81
2019-03-15T23:06:31.746Z,94685.60
2019-03-15T23:09:01.236Z,94693.21
2019-03-15T23:11:30.746Z,94684.48
2019-03-15T23:14:00.229Z,94688.75
2019-03-15T23:16:29.720Z,94669.89
2019-03-15T23:18:59.222Z,94672.47
2019-03-15T23:21:28.714Z,94672.13
2019-03-15T23:23:58.266Z,94647.25
2019-03-15T23:26:27.746Z,94680.66
2019-03-15T23:28:57.235Z,94674.78
2019-03-15T23:31:26.743Z,94676.53
2019-03-15T23:33:56.250Z,94681.91
2019-03-15T23:36:25.743Z,94675.80
2019-03-15T23:38:56.336Z,94680.03
2019-03-15T23:41:25.855Z,94681.67
2019-03-15T23:43:55.526Z,94698.70
2019-03-15T23:46:25.050Z,94657.83
2019-03-15T23:48:54.552Z,94689.09
2019-03-15T23:51:24.467Z,94679.75
2019-03-15T23:53:53.970Z,94684.69
2019-03-15T23:56:23.486Z,94671.16
2019-03-15T23:58:52.984Z,94676.88
